createdAt,value
2018-02-12T00:01:05.832Z,5.77
2018-02-12T00:03:35.023Z,5.73
2018-02-12T00:06:05.669Z,5.56
2018-02-12T00:08:35.175Z,5.59
2018-02-12T00:11:06.062Z,5.51
2018-02-12T00:13:35.834Z,5.45
2018-02-12T00:16:06.437Z,5.57
2018-02-12T00:18:35.675Z,5.54
2018-02-12T00:21:06.621Z,5.55
2018-02-12T00:23:36.366Z,5.49
2018-02-12T00:26:06.216Z,5.45
2018-02-12T00:28:35.423Z,5.51
2018-02-12T00:31:06.971Z,5.56
2018-02-12T00:33:36.214Z,5.56
2018-02-12T00:36:07.915Z,5.56
2018-02-12T00:38:37.742Z,5.55
2018-02-12T00:41:07.009Z,5.55
2018-02-12T00:43:36.243Z,5.46
2018-02-12T00:46:08.587Z,5.31
2018-02-12T00:48:38.019Z,5.27
2018-02-12T00:51:08.075Z,5.27
2018-02-12T00:53:38.351Z,5.29
2018-02-12T00:56:08.594Z,5.28
2018-02-12T00:58:37.853Z,5.22
2018-02-12T01:01:08.419Z,5.25
2018-02-12T01:03:37.790Z,5.22
2018-02-12T01:06:06.968Z,5.21
2018-02-12T01:08:36.662Z,5.17
2018-02-12T01:11:06.840Z,5.11
2018-02-12T01:13:36.043Z,5.12
2018-02-12T01:16:06.784Z,5.12
2018-02-12T01:18:36.401Z,5.14
2018-02-12T01:21:07.772Z,5.12
2018-02-12T01:23:38.741Z,5.11
2018-02-12T01:26:08.156Z,5.07
2018-02-12T01:28:37.533Z,5.08
2018-02-12T01:31:07.598Z,5.06
2018-02-12T01:33:39.058Z,5.02
2018-02-12T01:36:08.294Z,5.00
2018-02-12T01:38:38.900Z,4.95
2018-02-12T01:41:08.546Z,4.96
2018-02-12T01:43:38.314Z,4.99
2018-02-12T01:46:08.585Z,5.00
2018-02-12T01:48:39.039Z,4.99
2018-02-12T01:51:10.273Z,4.98
2018-02-12T01:53:40.556Z,4.97
2018-02-12T01:56:09.884Z,4.90
2018-02-12T01:58:39.182Z,4.94
2018-02-12T02:01:08.761Z,4.96
2018-02-12T02:03:37.986Z,4.97
2018-02-12T02:06:10.072Z,4.97
2018-02-12T02:08:40.005Z,4.94
2018-02-12T02:11:10.722Z,4.97
2018-02-12T02:13:40.595Z,4.97
2018-02-12T02:16:11.369Z,4.99
2018-02-12T02:18:40.943Z,4.97
2018-02-12T02:21:10.168Z,5.00
2018-02-12T02:23:40.693Z,5.03
2018-02-12T02:26:10.398Z,4.97
2018-02-12T02:28:40.111Z,5.01
2018-02-12T02:31:09.632Z,5.03
2018-02-12T02:33:39.250Z,5.04
2018-02-12T02:36:08.517Z,5.02
2018-02-12T02:38:38.182Z,4.96
2018-02-12T02:41:08.672Z,5.01
2018-02-12T02:43:38.770Z,4.86
2018-02-12T02:46:08.400Z,4.84
2018-02-12T02:48:37.686Z,4.79
2018-02-12T02:51:08.239Z,4.77
2018-02-12T02:53:37.947Z,4.70
2018-02-12T02:56:07.174Z,4.59
2018-02-12T02:58:38.548Z,4.49
2018-02-12T03:01:08.862Z,4.58
2018-02-12T03:03:39.036Z,4.57
2018-02-12T03:06:09.504Z,4.60
2018-02-12T03:08:41.592Z,4.62
2018-02-12T03:11:10.916Z,4.66
2018-02-12T03:13:40.280Z,4.60
2018-02-12T03:16:10.748Z,4.60
2018-02-12T03:18:42.094Z,4.58
2018-02-12T03:21:12.902Z,4.56
2018-02-12T03:23:42.189Z,4.47
2018-02-12T03:26:11.527Z,4.45
2018-02-12T03:28:41.444Z,4.42
2018-02-12T03:31:10.851Z,4.48
2018-02-12T03:33:40.068Z,4.43
2018-02-12T03:36:10.575Z,4.44
2018-02-12T03:38:39.841Z,4.47
2018-02-12T03:41:10.161Z,4.52
2018-02-12T03:43:39.671Z,4.46
2018-02-12T03:46:09.361Z,4.49
2018-02-12T03:48:38.580Z,4.55
2018-02-12T03:51:08.184Z,4.58
2018-02-12T03:53:37.878Z,4.55
2018-02-12T03:56:07.152Z,4.59
2018-02-12T03:58:38.428Z,4.60
2018-02-12T04:01:11.695Z,4.66
2018-02-12T04:03:41.216Z,4.71
2018-02-12T04:06:10.443Z,4.74
2018-02-12T04:08:39.710Z,4.77
2018-02-12T04:11:09.281Z,4.88
2018-02-12T04:13:38.617Z,4.92
2018-02-12T04:16:08.719Z,4.97
2018-02-12T04:18:38.899Z,5.00
2018-02-12T04:21:09.082Z,5.00
2018-02-12T04:23:38.385Z,5.03
2018-02-12T04:26:07.874Z,5.02
2018-02-12T04:28:38.174Z,5.02
2018-02-12T04:31:07.452Z,5.00
2018-02-12T04:33:37.317Z,5.01
2018-02-12T04:36:08.131Z,4.95
2018-02-12T04:38:37.368Z,5.02
2018-02-12T04:41:08.383Z,5.02
2018-02-12T04:43:38.599Z,5.07
2018-02-12T04:46:07.884Z,5.02
2018-02-12T04:48:38.918Z,4.98
2018-02-12T04:51:08.243Z,5.03
2018-02-12T04:53:37.782Z,5.09
2018-02-12T04:56:08.385Z,5.15
2018-02-12T04:58:37.654Z,5.15
2018-02-12T05:01:06.902Z,5.14
2018-02-12T05:03:36.477Z,5.07
2018-02-12T05:06:08.484Z,5.13
2018-02-12T05:08:38.239Z,5.07
2018-02-12T05:11:08.371Z,5.07
2018-02-12T05:13:37.605Z,5.05
2018-02-12T05:16:07.118Z,5.05
2018-02-12T05:18:36.820Z,5.07
2018-02-12T05:21:06.053Z,5.05
2018-02-12T05:23:35.281Z,5.12
2018-02-12T05:26:08.418Z,5.12
2018-02-12T05:28:37.789Z,4.91
2018-02-12T05:31:07.511Z,4.97
2018-02-12T05:33:37.350Z,4.90
2018-02-12T05:36:06.693Z,4.98
2018-02-12T05:38:35.927Z,4.90
2018-02-12T05:41:06.082Z,4.95
2018-02-12T05:43:35.662Z,4.92
2018-02-12T05:46:08.312Z,4.97
2018-02-12T05:48:38.101Z,4.92
2018-02-12T05:51:09.414Z,4.93
2018-02-12T05:53:38.662Z,4.99
2018-02-12T05:56:08.960Z,4.94
2018-02-12T05:58:38.220Z,4.90
2018-02-12T06:01:08.159Z,4.85
2018-02-12T06:03:37.725Z,4.94
2018-02-12T06:06:06.974Z,4.92
2018-02-12T06:08:37.052Z,4.94
2018-02-12T06:11:06.570Z,4.88
2018-02-12T06:13:36.008Z,4.93
2018-02-12T06:16:06.680Z,4.93
2018-02-12T06:18:37.396Z,4.96
2018-02-12T06:21:08.895Z,4.84
2018-02-12T06:23:39.899Z,4.88
2018-02-12T06:26:09.588Z,4.93
2018-02-12T06:28:39.180Z,4.94
2018-02-12T06:31:09.927Z,4.77
2018-02-12T06:33:39.201Z,4.78
2018-02-12T06:36:09.247Z,4.83
2018-02-12T06:38:38.794Z,4.83
2018-02-12T06:41:08.032Z,4.83
2018-02-12T06:43:38.789Z,4.88
2018-02-12T06:46:10.073Z,4.78
2018-02-12T06:48:39.488Z,4.76
2018-02-12T06:51:08.833Z,4.68
2018-02-12T06:53:38.335Z,4.72
2018-02-12T06:56:07.570Z,4.78
2018-02-12T06:58:38.349Z,4.77
2018-02-12T07:01:08.106Z,4.66
2018-02-12T07:03:37.404Z,4.69
2018-02-12T07:06:07.678Z,4.71
2018-02-12T07:08:37.396Z,4.75
2018-02-12T07:11:08.764Z,4.78
2018-02-12T07:13:38.867Z,4.68
2018-02-12T07:16:08.413Z,4.65
2018-02-12T07:18:37.737Z,4.74
2018-02-12T07:21:08.974Z,4.72
2018-02-12T07:23:38.826Z,4.71
2018-02-12T07:26:08.047Z,4.73
2018-02-12T07:28:37.290Z,4.66
2018-02-12T07:31:07.770Z,4.60
2018-02-12T07:33:37.079Z,4.70
2018-02-12T07:36:07.410Z,4.71
2018-02-12T07:38:37.799Z,4.68
2018-02-12T07:41:07.136Z,4.72
2018-02-12T07:43:36.420Z,4.74
2018-02-12T07:46:07.357Z,4.65
2018-02-12T07:48:36.603Z,4.51
2018-02-12T07:51:07.915Z,4.46
2018-02-12T07:53:37.919Z,4.42
2018-02-12T07:56:07.264Z,4.38
2018-02-12T07:58:36.515Z,4.23
2018-02-12T08:01:06.127Z,4.26
2018-02-12T08:03:35.366Z,4.12
2018-02-12T08:06:06.389Z,4.09
2018-02-12T08:08:35.732Z,4.15
2018-02-12T08:11:05.594Z,4.19
2018-02-12T08:13:35.211Z,4.18
2018-02-12T08:16:06.220Z,4.21
2018-02-12T08:18:35.919Z,4.14
2018-02-12T08:21:07.031Z,4.10
2018-02-12T08:23:37.030Z,4.07
2018-02-12T08:26:07.534Z,4.20
2018-02-12T08:28:36.918Z,4.25
2018-02-12T08:31:07.818Z,4.26
2018-02-12T08:33:38.315Z,4.33
2018-02-12T08:36:07.771Z,4.28
2018-02-12T08:38:37.988Z,4.29
2018-02-12T08:41:07.658Z,4.38
2018-02-12T08:43:36.946Z,4.53
2018-02-12T08:46:08.055Z,4.57
2018-02-12T08:48:38.431Z,4.47
2018-02-12T08:51:08.984Z,4.60
2018-02-12T08:53:38.623Z,4.66
2018-02-12T08:56:08.546Z,4.64
2018-02-12T08:58:37.980Z,4.76
2018-02-12T09:01:07.305Z,4.77
2018-02-12T09:03:37.465Z,4.85
2018-02-12T09:06:06.785Z,4.97
2018-02-12T09:08:36.106Z,5.08
2018-02-12T09:11:07.832Z,5.01
2018-02-12T09:13:37.598Z,4.99
2018-02-12T09:16:08.020Z,4.93
2018-02-12T09:18:37.570Z,4.97
2018-02-12T09:21:06.881Z,5.02
2018-02-12T09:23:36.689Z,4.89
2018-02-12T09:26:06.343Z,4.76
2018-02-12T09:28:35.608Z,4.77
2018-02-12T09:31:07.358Z,4.77
2018-02-12T09:33:38.715Z,4.69
2018-02-12T09:36:09.343Z,4.59
2018-02-12T09:38:38.731Z,4.66
2018-02-12T09:41:08.412Z,4.67
2018-02-12T09:43:39.086Z,4.62
2018-02-12T09:46:08.580Z,4.53
2018-02-12T09:48:38.298Z,4.42
2018-02-12T09:51:07.640Z,4.48
2018-02-12T09:53:36.979Z,4.49
2018-02-12T09:56:07.154Z,4.51
2018-02-12T09:58:36.717Z,4.59
2018-02-12T10:01:07.196Z,4.75
2018-02-12T10:03:36.921Z,4.63
2018-02-12T10:06:06.156Z,4.55
2018-02-12T10:08:35.409Z,4.68
2018-02-12T10:11:08.433Z,4.71
2018-02-12T10:13:37.887Z,4.89
2018-02-12T10:16:07.109Z,4.94
2018-02-12T10:18:36.885Z,4.91
2018-02-12T10:21:06.430Z,4.90
2018-02-12T10:23:35.739Z,4.93
2018-02-12T10:26:06.941Z,5.00
2018-02-12T10:28:36.861Z,4.94
2018-02-12T10:31:07.838Z,4.88
2018-02-12T10:33:38.127Z,4.83
2018-02-12T10:36:13.462Z,4.89
2018-02-12T10:38:43.540Z,4.96
2018-02-12T10:41:13.239Z,4.91
2018-02-12T10:43:42.594Z,4.89
2018-02-12T10:46:11.866Z,4.87
2018-02-12T10:48:41.470Z,4.84
2018-02-12T10:51:10.792Z,4.93
2018-02-12T10:53:40.039Z,5.01
2018-02-12T10:56:09.696Z,5.11
2018-02-12T10:58:39.265Z,5.35
2018-02-12T11:01:08.552Z,5.49
2018-02-12T11:03:39.051Z,5.47
2018-02-12T11:06:08.483Z,5.36
2018-02-12T11:08:37.799Z,5.24
2018-02-12T11:11:09.951Z,5.35
2018-02-12T11:13:39.412Z,5.39
2018-02-12T11:16:09.250Z,5.24
2018-02-12T11:18:39.034Z,5.37
2018-02-12T11:21:08.316Z,5.44
2018-02-12T11:23:37.629Z,5.54
2018-02-12T11:26:10.123Z,5.59
2018-02-12T11:28:39.418Z,5.57
2018-02-12T11:31:10.132Z,5.67
2018-02-12T11:33:39.704Z,5.68
2018-02-12T11:36:09.076Z,5.73
2018-02-12T11:38:38.829Z,5.86
2018-02-12T11:41:08.125Z,6.11
2018-02-12T11:43:37.530Z,6.31
2018-02-12T11:46:07.136Z,6.36
2018-02-12T11:48:36.400Z,6.27
2018-02-12T11:51:06.445Z,6.36
2018-02-12T11:53:36.987Z,6.39
2018-02-12T11:56:08.443Z,6.64
2018-02-12T11:58:39.535Z,6.85
2018-02-12T12:01:09.931Z,7.06
2018-02-12T12:03:39.177Z,7.34
2018-02-12T12:06:08.720Z,7.80
2018-02-12T12:08:38.251Z,7.64
2018-02-12T12:11:07.559Z,7.26
2018-02-12T12:13:37.224Z,7.34
2018-02-12T12:16:06.455Z,7.05
2018-02-12T12:18:35.658Z,6.76
2018-02-12T12:21:05.719Z,6.64
2018-02-12T12:23:34.946Z,6.56
2018-02-12T12:26:05.521Z,6.47
2018-02-12T12:28:35.142Z,6.62
2018-02-12T12:31:05.018Z,6.57
2018-02-12T12:33:34.470Z,6.35
2018-02-12T12:36:06.206Z,6.53
2018-02-12T12:38:36.895Z,6.64
2018-02-12T12:41:06.414Z,6.72
2018-02-12T12:43:35.964Z,6.80
2018-02-12T12:46:06.047Z,6.95
2018-02-12T12:48:35.348Z,7.05
2018-02-12T12:51:05.786Z,7.36
2018-02-12T12:53:35.119Z,7.17
2018-02-12T12:56:05.437Z,7.20
2018-02-12T12:58:35.012Z,7.05
2018-02-12T13:01:04.847Z,6.92
2018-02-12T13:03:34.163Z,7.06
2018-02-12T13:06:08.842Z,7.03
2018-02-12T13:08:38.278Z,7.11
2018-02-12T13:11:08.117Z,7.28
2018-02-12T13:13:37.726Z,7.26
2018-02-12T13:16:07.769Z,7.42
2018-02-12T13:18:38.093Z,7.87
2018-02-12T13:21:07.948Z,7.61
2018-02-12T13:23:37.274Z,7.87
2018-02-12T13:26:06.498Z,8.29
2018-02-12T13:31:35.651Z,8.84
2018-02-12T13:34:06.746Z,8.56
2018-02-12T13:36:36.031Z,9.03
2018-02-12T13:39:06.694Z,9.61
2018-02-12T13:41:36.627Z,10.24
2018-02-12T13:44:07.047Z,9.72
2018-02-12T13:46:36.314Z,9.71
2018-02-12T13:49:05.951Z,9.88
2018-02-12T13:51:35.230Z,10.14
2018-02-12T13:54:05.958Z,10.38
2018-02-12T13:56:35.538Z,10.11
2018-02-12T13:59:05.195Z,10.10
2018-02-12T14:01:34.473Z,9.68
2018-02-12T14:04:05.642Z,9.90
2018-02-12T14:06:34.890Z,9.53
2018-02-12T14:09:04.811Z,9.05
2018-02-12T14:11:34.339Z,8.70
2018-02-12T14:14:04.869Z,8.43
2018-02-12T14:16:34.137Z,8.54
2018-02-12T14:19:04.214Z,8.23
2018-02-12T14:21:34.437Z,8.17
2018-02-12T14:24:06.960Z,7.81
2018-02-12T14:26:36.601Z,7.91
2018-02-12T14:29:06.093Z,7.87
2018-02-12T14:31:35.863Z,7.68
2018-02-12T14:34:07.117Z,7.64
2018-02-12T14:36:36.423Z,7.57
2018-02-12T14:39:06.245Z,7.35
2018-02-12T14:41:35.826Z,7.41
2018-02-12T14:44:05.966Z,7.23
2018-02-12T14:46:35.301Z,7.41
2018-02-12T14:49:05.345Z,7.32
2018-02-12T14:51:34.613Z,7.31
2018-02-12T14:54:04.984Z,7.18
2018-02-12T14:56:34.560Z,7.16
2018-02-12T14:59:04.412Z,7.10
2018-02-12T15:01:33.673Z,6.98
2018-02-12T15:04:05.327Z,7.00
2018-02-12T15:06:34.728Z,6.86
2018-02-12T15:09:05.516Z,6.73
2018-02-12T15:11:35.118Z,6.69
2018-02-12T15:14:07.184Z,6.62
2018-02-12T15:16:36.459Z,6.59
2018-02-12T15:19:06.440Z,6.56
2018-02-12T15:21:35.741Z,6.65
2018-02-12T15:24:07.568Z,6.69
2018-02-12T15:26:36.792Z,6.74
2018-02-12T15:29:06.171Z,6.72
2018-02-12T15:31:35.441Z,6.76
2018-02-12T15:34:05.889Z,6.82
2018-02-12T15:36:35.503Z,6.78
2018-02-12T15:39:06.065Z,6.88
2018-02-12T15:41:35.312Z,6.81
2018-02-12T15:44:05.555Z,6.71
2018-02-12T15:46:34.775Z,6.58
2018-02-12T15:49:06.111Z,6.42
2018-02-12T15:51:36.610Z,6.44
2018-02-12T15:54:08.625Z,6.43
2018-02-12T15:56:37.852Z,6.42
2018-02-12T15:59:07.385Z,6.67
2018-02-12T16:01:36.631Z,6.81
2018-02-12T16:04:07.111Z,6.74
2018-02-12T16:06:36.684Z,6.71
2018-02-12T16:09:08.032Z,6.70
2018-02-12T16:11:37.270Z,6.58
2018-02-12T16:14:07.201Z,6.56
2018-02-12T16:16:36.505Z,6.56
2018-02-12T16:19:05.740Z,6.43
2018-02-12T16:21:35.503Z,6.40
2018-02-12T16:24:06.902Z,6.32
2018-02-12T16:26:39.842Z,6.34
2018-02-12T16:29:15.394Z,6.31
2018-02-12T16:31:52.169Z,6.22
2018-02-12T16:34:22.595Z,6.16
2018-02-12T16:36:52.614Z,6.15
2018-02-12T16:39:21.850Z,6.12
2018-02-12T16:41:53.576Z,6.10
2018-02-12T16:44:22.924Z,6.10
2018-02-12T16:46:53.032Z,5.97
2018-02-12T16:49:22.295Z,5.96
2018-02-12T16:51:52.603Z,5.94
2018-02-12T16:54:22.195Z,5.89
2018-02-12T16:56:52.176Z,5.87
2018-02-12T16:59:21.456Z,5.86
2018-02-12T17:01:51.462Z,5.79
2018-02-12T17:04:20.895Z,5.75
2018-02-12T17:06:51.762Z,5.77
2018-02-12T17:09:21.458Z,5.69
2018-02-12T17:11:51.949Z,5.63
2018-02-12T17:14:22.707Z,5.59
2018-02-12T17:16:54.514Z,5.51
2018-02-12T17:19:24.169Z,5.51
2018-02-12T17:21:53.935Z,5.53
2018-02-12T17:24:23.876Z,5.54
2018-02-12T17:26:54.782Z,5.50
2018-02-12T17:29:24.691Z,5.47
2018-02-12T17:32:24.435Z,5.46
2018-02-12T17:34:55.953Z,5.42
2018-02-12T17:37:25.259Z,5.44
2018-02-12T17:39:54.668Z,5.42
2018-02-12T17:42:25.251Z,5.39
2018-02-12T17:44:54.810Z,5.33
2018-02-12T17:47:24.078Z,5.30
2018-02-12T17:49:55.544Z,5.24
2018-02-12T17:52:24.841Z,5.29
2018-02-12T17:54:54.943Z,5.33
2018-02-12T17:57:25.111Z,5.33
2018-02-12T17:59:56.107Z,5.31
2018-02-12T18:02:25.370Z,5.22
2018-02-12T18:04:56.477Z,5.20
2018-02-12T18:07:26.286Z,5.17
2018-02-12T18:09:55.908Z,5.17
2018-02-12T18:12:25.260Z,5.15
2018-02-12T18:14:55.135Z,5.13
2018-02-12T18:17:24.411Z,5.04
2018-02-12T18:19:55.595Z,5.07
2018-02-12T18:22:25.355Z,4.97
2018-02-12T18:24:55.034Z,4.96
2018-02-12T18:27:24.279Z,4.96
2018-02-12T18:29:55.506Z,5.00
2018-02-12T18:32:24.776Z,4.80
2018-02-12T18:34:54.231Z,4.80
2018-02-12T18:37:23.843Z,4.73
2018-02-12T18:39:54.124Z,4.59
2018-02-12T18:42:23.380Z,4.62
2018-02-12T18:44:55.290Z,4.64
2018-02-12T18:47:24.611Z,4.66
2018-02-12T18:49:54.140Z,4.66
2018-02-12T18:52:23.802Z,4.65
2018-02-12T18:54:53.690Z,4.61
2018-02-12T18:57:22.985Z,4.65
2018-02-12T18:59:53.533Z,4.63
2018-02-12T19:02:22.839Z,4.59
2018-02-12T19:04:52.737Z,4.47
2018-02-12T19:07:22.251Z,4.45
2018-02-12T19:09:52.262Z,4.52
2018-02-12T19:12:21.579Z,4.50
2018-02-12T19:14:52.595Z,4.44
2018-02-12T19:17:22.846Z,4.41
2018-02-12T19:19:54.109Z,4.44
2018-02-12T19:22:23.766Z,4.39
2018-02-12T19:24:54.292Z,4.42
2018-02-12T19:27:23.510Z,4.45
2018-02-12T19:29:55.679Z,4.50
2018-02-12T19:32:25.118Z,4.49
2018-02-12T19:34:55.551Z,4.51
2018-02-12T19:37:25.186Z,4.37
2018-02-12T19:39:54.664Z,4.36
2018-02-12T19:42:23.979Z,4.37
2018-02-12T19:44:55.170Z,4.30
2018-02-12T19:47:24.453Z,4.31
2018-02-12T19:49:53.962Z,4.23
2018-02-12T19:52:24.078Z,4.24
2018-02-12T19:54:54.076Z,4.27
2018-02-12T19:57:23.379Z,4.22
2018-02-12T19:59:55.470Z,4.24
2018-02-12T20:02:24.940Z,4.15
2018-02-12T20:04:54.667Z,4.03
2018-02-12T20:07:24.186Z,4.03
2018-02-12T20:09:56.194Z,3.94
2018-02-12T20:12:25.459Z,3.91
2018-02-12T20:14:55.291Z,3.97
2018-02-12T20:17:24.528Z,3.93
2018-02-12T20:19:53.957Z,3.97
2018-02-12T20:22:23.540Z,3.97
2018-02-12T20:24:53.603Z,3.99
2018-02-12T20:27:22.872Z,3.95
2018-02-12T20:30:04.102Z,3.99
2018-02-12T20:32:33.514Z,4.03
2018-02-12T20:35:04.037Z,4.07
2018-02-12T20:37:33.259Z,4.06
2018-02-12T20:40:05.757Z,4.00
2018-02-12T20:42:35.362Z,3.86
2018-02-12T20:45:05.581Z,3.86
2018-02-12T20:47:35.208Z,3.92
2018-02-12T20:50:06.492Z,3.70
2018-02-12T20:52:40.546Z,3.62
2018-02-12T20:55:10.081Z,3.65
2018-02-12T20:57:39.684Z,3.57
2018-02-12T21:00:09.006Z,3.60
2018-02-12T21:02:38.247Z,3.61
2018-02-12T21:05:07.782Z,3.63
2018-02-12T21:07:36.990Z,3.56
2018-02-12T21:10:06.845Z,3.63
2018-02-12T21:12:36.445Z,3.67
2018-02-12T21:15:06.579Z,3.64
2018-02-12T21:17:35.883Z,3.63
2018-02-12T21:20:06.918Z,3.56
2018-02-12T21:22:36.175Z,3.49
2018-02-12T21:25:06.219Z,3.50
2018-02-12T21:27:36.486Z,3.51
2018-02-12T21:30:11.909Z,3.53
2018-02-12T21:32:41.600Z,3.50
2018-02-12T21:35:13.426Z,3.45
2018-02-12T21:37:42.712Z,3.48
2018-02-12T21:40:11.927Z,3.35
2018-02-12T21:42:41.497Z,3.27
2018-02-12T21:45:10.831Z,3.27
2018-02-12T21:47:40.080Z,3.32
2018-02-12T21:50:10.609Z,3.33
2018-02-12T21:52:40.038Z,3.31
2018-02-12T21:55:10.657Z,3.34
2018-02-12T21:57:40.274Z,3.31
2018-02-12T22:00:10.506Z,3.39
2018-02-12T22:02:39.774Z,3.34
2018-02-12T22:05:09.391Z,3.39
2018-02-12T22:07:39.082Z,3.35
2018-02-12T22:10:08.345Z,3.35
2018-02-12T22:12:38.761Z,3.34
2018-02-12T22:15:08.486Z,3.20
2018-02-12T22:17:37.736Z,3.24
2018-02-12T22:20:12.090Z,3.22
2018-02-12T22:22:41.330Z,3.29
2018-02-12T22:25:10.940Z,3.24
2018-02-12T22:27:40.666Z,3.28
2018-02-12T22:30:10.316Z,3.20
2018-02-12T22:32:40.747Z,3.13
2018-02-12T22:35:10.469Z,3.03
2018-02-12T22:37:39.895Z,3.06
2018-02-12T22:40:09.732Z,3.12
2018-02-12T22:42:40.005Z,3.16
2018-02-12T22:45:09.357Z,3.15
2018-02-12T22:47:38.689Z,3.08
2018-02-12T22:50:08.507Z,3.12
2018-02-12T22:52:37.992Z,3.16
2018-02-12T22:55:07.262Z,2.98
2018-02-12T22:57:36.977Z,2.94
2018-02-12T23:00:06.588Z,2.96
2018-02-12T23:02:35.917Z,2.97
2018-02-12T23:05:05.910Z,3.04
2018-02-12T23:07:35.245Z,3.02
2018-02-12T23:10:05.124Z,2.99
2018-02-12T23:12:34.986Z,3.04
2018-02-12T23:15:09.006Z,2.99
2018-02-12T23:17:38.373Z,2.99
2018-02-12T23:20:08.154Z,2.96
2018-02-12T23:22:37.749Z,2.91
2018-02-12T23:25:07.243Z,2.97
2018-02-12T23:27:37.605Z,2.95
2018-02-12T23:30:38.173Z,2.95
2018-02-12T23:33:09.793Z,2.98
2018-02-12T23:35:39.212Z,2.97
2018-02-12T23:38:08.617Z,2.99
2018-02-12T23:40:38.427Z,3.00
2018-02-12T23:43:08.281Z,2.99
2018-02-12T23:45:37.786Z,2.99
2018-02-12T23:48:07.456Z,3.00
2018-02-12T23:50:36.775Z,2.97
2018-02-12T23:53:06.033Z,2.91
2018-02-12T23:55:37.970Z,2.81
2018-02-12T23:58:09.225Z,2.70
